EST,Max TemperatureF,Mean TemperatureF,Min TemperatureF,Max Dew PointF,MeanDew PointF,Min DewpointF,Max Humidity, Mean Humidity, Min Humidity, Max Sea Level PressureIn, Mean Sea Level PressureIn, Min Sea Level PressureIn, Max VisibilityMiles, Mean VisibilityMiles, Min VisibilityMiles, Max Wind SpeedMPH, Mean Wind SpeedMPH, Max Gust SpeedMPH,PrecipitationIn, CloudCover, Events, WindDirDegrees
2013-12-1,51,44,37,34,31,26,65,56,46,30.22,30.11,29.98,10,10,10,15,8,18,0.00,7,,189
2013-12-2,56,46,35,43,37,32,89,70,51,29.96,29.86,29.78,10,10,10,10,5,13,0.00,6,,159
2013-12-3,57,50,43,48,45,42,93,83,72,29.88,29.83,29.80,10,8,2,12,6,16,0.00,5,,156
2013-12-4,68,59,50,57,53,47,89,79,68,29.88,29.83,29.75,10,8,2,20,12,25,0.10,6,Rain,161
2013-12-5,66,51,36,63,50,34,93,86,78,30.12,29.95,29.83,10,6,1,18,11,24,1.06,8,Rain,283
2013-12-6,36,33,29,32,29,26,96,91,85,30.37,30.19,30.09,10,5,2,20,12,26,0.92,8,Rain-Snow,10
2013-12-7,29,27,24,26,23,19,92,84,75,30.57,30.50,30.34,10,8,2,16,10,20,T,6,Snow,22
2013-12-8,36,30,24,34,28,21,100,91,81,30.46,30.21,30.03,10,5,1,17,9,21,0.36,8,Rain,79
2013-12-9,36,32,28,34,29,22,96,86,75,30.25,30.16,30.03,10,7,2,15,9,19,0.02,8,Snow,264
2013-12-10,33,28,23,22,20,18,88,76,63,30.40,30.26,30.15,10,8,2,17,9,23,0.01,5,Snow,275
2013-12-11,41,30,19,26,21,16,91,68,44,30.51,30.41,30.34,10,10,7,22,10,28,0.00,2,,244
2013-12-12,31,22,13,15,10,7,80,58,36,30.60,30.51,30.39,10,10,10,13,6,17,0.00,0,,248
2013-12-13,45,33,21,30,17,11,75,53,31,30.38,30.28,30.14,10,10,10,16,9,21,0.01,2,Rain,189
2013-12-14,46,41,35,44,38,27,100,82,64,30.12,29.84,29.72,10,6,1,23,11,28,0.46,8,Rain,211
2013-12-15,35,32,29,32,26,23,96,84,72,30.17,30.07,29.91,10,9,6,20,11,25,T,8,,263
2013-12-16,44,37,30,33,30,26,85,75,65,30.16,30.10,30.04,10,10,7,15,10,20,0.00,5,,205
2013-12-17,43,36,28,35,31,24,85,78,70,30.24,30.09,30.01,10,8,5,18,8,26,0.01,6,Rain-Snow,265
2013-12-18,41,33,24,25,19,15,88,61,34,30.33,30.25,30.12,10,9,6,16,10,21,0.00,0,,214
2013-12-19,60,48,36,37,27,18,52,44,36,30.18,30.11,30.03,10,10,10,26,12,33,0.00,0,,196
2013-12-20,61,56,51,55,44,29,89,65,41,30.02,29.97,29.90,10,9,2,22,14,27,0.12,8,Rain,185
2013-12-21,72,65,57,63,58,52,93,83,73,29.90,29.78,29.57,10,8,1,47,17,65,1.29,7,Rain-Thunderstorm,187
2013-12-22,60,51,42,58,50,40,93,78,62,30.06,29.86,29.67,10,9,2,24,13,34,0.57,7,Rain,237
2013-12-23,42,35,27,38,28,20,92,76,59,30.41,30.27,30.08,10,10,5,17,9,22,0.03,7,Rain,306
2013-12-24,27,22,17,20,14,9,81,66,50,30.56,30.49,30.38,10,9,5,21,7,26,T,4,Snow,321
2013-12-25,41,29,17,21,15,11,74,54,34,30.48,30.38,30.25,10,10,10,16,8,21,0.00,3,,170
2013-12-26,43,36,28,26,23,20,70,57,43,30.41,30.35,30.23,10,10,10,18,8,24,0.00,3,,239
2013-12-27,50,38,25,26,21,20,81,57,32,30.47,30.40,30.35,10,10,10,14,7,17,0.00,0,,201
2013-12-28,50,41,31,36,25,21,67,53,39,30.36,30.25,30.06,10,10,8,13,7,16,0.04,1,Rain,179
2013-12-29,46,40,33,40,37,29,92,84,76,30.07,29.93,29.85,10,6,1,22,8,26,0.58,8,Rain,279
2013-12-30,33,29,24,29,24,18,92,81,69,30.26,30.19,30.07,10,10,9,16,7,21,T,7,,272
2013-12-31,37,30,22,21,19,16,84,68,52,30.43,30.33,30.24,10,10,10,17,9,22,0.00,3,,220